Colorado Springs, CO (80916)

9:20 PM MDT on August 28, 2014 (GMT -0600)
Soaring Eagles | Change Station
CLOSE
Current Station
Personal Weather Station
Location: Colorado Springs, CO
Elevation: 5991 ft
Nearby Weather Stations

Elev 5991 ft 38.79 °N, 104.74 °W | Updated 1 second ago

Scattered Clouds
Scattered Clouds
52.4 °F
Feels Like 52.4 °F
N
0.0
Wind Variable Wind from NNE
Gusts 0.4 mph

Today
High -- | Low -- °F
--% Chance of Precip.
Yesterday
High -- | Low -- °F
Precip. -- in
6:24 AM 7:35 PM
Waxing Crescent, 11% visible
Pressure 30.03 in
Visibility 10.0 miles
Clouds Few 12000 ft
Scattered Clouds 25000 ft
Dew Point 46 °F
Humidity 78%
Rainfall 0.49 in
Snow Depth Not available.
UV 0 out of 12
Pollen 9.20 out of 12
Ozone Good
Flu Activity Not available.
METAR KCOS 290254Z 29006KT 10SM FEW120 SCT250 13/08 A3022 RMK AO2 SLP169 T01330078 55003

More Conditions Fewer Conditions

Pressure 30.03 in
Visibility 10.0 miles
Clouds Few 12000 ft
Scattered Clouds 25000 ft
Dew Point 46 °F
Humidity 78%
Rainfall 0.49 in
Snow Depth Not available.
UV 0 out of 12
Pollen 9.20 out of 12
Ozone Good
Flu Activity Not available.
METAR KCOS 290254Z 29006KT 10SM FEW120 SCT250 13/08 A3022 RMK AO2 SLP169 T01330078 55003

More Conditions Fewer Conditions

10-Day Weather Forecast

Almanac

Astronomy

Aug. 28, 2014 Rise Set
Actual Time 6:24 AM MDT 7:35 PM MDT
Civil Twilight 5:56 AM MDT 8:02 PM MDT
Nautical Twilight 5:23 AM MDT 8:35 PM MDT
Astronomical Twilight 4:49 AM MDT 9:09 PM MDT
Moon 9:16 AM MDT (8/28) 9:02 PM MDT (8/28)
Length of Visible Light 14h 05m
Length of Day
13h 10m
Tomorrow will be 2m 24s shorter.
Waxing Crescent, 11% of the Moon is Illuminated
Today
Waxing Crescent
Sep 2
First Quarter
Sep 8
Full
Sep 15
Last Quarter
Sep 24
New

Today's Extremes

State Highs State Lows

Community

WunderPhotos

Upload Photos

1,748,151 photos uploaded!

Nearby

Air Quality

  Air Quality AQ Index Pollutant
Yesterday Good
OZONE
Current Good
OZONE
Thursday Good
PM2.5
Thursday Good
OZONE
Friday Good
PM2.5
Friday Good
OZONE

Snow Depth

Station Depth Elevation
South Colony 0 in 10800 ft
Rough And Tumble 1 in 10360 ft
Echo Lake 0 in 10600 ft
Medano Pass 0 in 9620 ft
Michigan Creek 0 in 10600 ft

Earthquake Activity

City Distance Mag. Time & Date
No recent earthquake activity has been reported nearby.
Minimum magnitude displayed is 2.5.

Coastal Water Temperatures

Place Temperature
No Stations Reporting

Nearby Weather Stations